Time;durP1;ratioP1;P1;durP2;ratioP2;P2;SDS_P1;SDS_P2;PMS_P1;PMS_P2;Temp;Humidity;BMP_temperature;BMP_pressure;BME280_temperature;BME280_humidity;BME280_pressure;Samples;Min_cycle;Max_cycle;Signal;HPM_P1;HPM_P2
2024/02/14 00:00:15;;;;;;;1.63;1.00;;;;;;;10.29;98.82;101279.44;2087407;28;20688;-70
2024/02/14 00:01:15;;;;;;;1.83;1.13;;;;;;;9.83;99.75;101209.13;2095256;28;20416;-70
2024/02/14 00:02:16;;;;;;;1.73;0.90;;;;;;;10.35;98.92;101280.53;2094786;28;20190;-70
2024/02/14 00:03:16;;;;;;;1.03;0.83;;;;;;;9.82;98.62;101208.38;2087885;28;20187;-70
2024/02/14 00:04:17;;;;;;;1.57;0.90;;;;;;;10.30;98.56;101275.44;2087050;28;20252;-70
2024/02/14 00:05:18;;;;;;;1.80;1.07;;;;;;;9.86;98.67;101220.19;2086103;28;20693;-70
2024/02/14 00:06:18;;;;;;;0.90;0.80;;;;;;;10.09;99.29;101250.78;2087328;28;20199;-70
2024/02/14 00:07:20;;;;;;;1.33;1.00;;;;;;;10.09;98.64;101256.31;2087031;28;20599;-70
2024/02/14 00:08:20;;;;;;;1.70;0.90;;;;;;;10.27;97.95;101290.16;2086641;28;20207;-69
2024/02/14 00:09:21;;;;;;;5.20;1.07;;;;;;;10.34;97.65;101287.28;2079204;28;20461;-69
2024/02/14 00:10:22;;;;;;;1.50;1.00;;;;;;;10.29;97.61;101279.44;2086500;28;20246;-71
2024/02/14 00:11:23;;;;;;;2.07;1.00;;;;;;;10.34;97.07;101292.81;2086543;28;20191;-71
2024/02/14 00:12:24;;;;;;;2.43;0.87;;;;;;;9.89;98.21;101226.88;2094443;28;20785;-71
2024/02/14 00:13:25;;;;;;;1.43;0.90;;;;;;;10.29;96.59;101281.41;2094026;28;20425;-69
2024/02/14 00:14:25;;;;;;;1.60;1.07;;;;;;;9.77;98.17;101228.19;2087610;28;20651;-70
2024/02/14 00:15:26;;;;;;;1.77;1.03;;;;;;;10.06;98.09;101271.00;2088431;28;20183;-71
2024/02/14 00:16:30;;;;;;;1.93;1.10;;;;;;;9.64;97.37;101218.84;2086953;28;20192;-70
2024/02/14 00:17:30;;;;;;;1.47;1.10;;;;;;;10.27;97.20;101306.78;2086960;28;20199;-70
2024/02/14 00:18:31;;;;;;;1.33;1.00;;;;;;;10.19;96.19;101296.19;2087689;28;20786;-69
2024/02/14 00:19:31;;;;;;;1.10;0.80;;;;;;;10.21;96.50;101311.19;2087982;28;20209;-69
2024/02/14 00:20:32;;;;;;;1.47;0.93;;;;;;;9.70;96.58;101235.78;2087537;28;20179;-69
2024/02/14 00:21:33;;;;;;;1.70;1.10;;;;;;;10.14;95.48;101324.34;2089566;28;20262;-69
2024/02/14 00:22:34;;;;;;;1.47;1.00;;;;;;;9.67;96.52;101239.38;2087568;28;20184;-71
2024/02/14 00:23:34;;;;;;;1.87;1.00;;;;;;;9.85;96.70;101256.59;2088694;28;20445;-70
2024/02/14 00:24:35;;;;;;;1.93;1.17;;;;;;;9.84;96.20;101272.41;2088025;28;20198;-70
2024/02/14 00:25:36;;;;;;;8.73;1.63;;;;;;;9.85;97.41;101271.19;2089178;28;20293;-72
2024/02/14 00:26:37;;;;;;;2.10;0.90;;;;;;;9.76;97.15;101247.97;2089072;28;20178;-70
2024/02/14 00:27:38;;;;;;;2.07;1.20;;;;;;;9.62;96.06;101220.44;2089956;28;20180;-70
2024/02/14 00:28:38;;;;;;;2.40;1.03;;;;;;;9.74;96.69;101233.78;2096520;28;21034;-70
2024/02/14 00:29:39;;;;;;;2.20;0.90;;;;;;;10.25;96.12;101323.00;2096146;28;20577;-71
2024/02/14 00:30:39;;;;;;;3.33;1.10;;;;;;;10.09;97.54;101300.63;2088521;28;20211;-70
2024/02/14 00:31:40;;;;;;;1.27;0.90;;;;;;;9.94;96.95;101271.50;2088078;28;21728;-70
2024/02/14 00:32:41;;;;;;;2.87;1.10;;;;;;;10.32;96.96;101325.72;2088748;28;20184;-70
2024/02/14 00:33:42;;;;;;;1.30;0.80;;;;;;;9.79;97.37;101245.16;2089306;28;20469;-70
2024/02/14 00:34:43;;;;;;;2.10;1.20;;;;;;;10.34;97.75;101322.50;2088462;28;20289;-70
2024/02/14 00:35:43;;;;;;;1.30;0.90;;;;;;;10.24;97.62;101310.34;2088956;28;20198;-70
2024/02/14 00:36:44;;;;;;;1.20;0.87;;;;;;;9.84;95.82;101250.25;2089063;28;20319;-70
2024/02/14 00:37:44;;;;;;;1.83;0.93;;;;;;;9.65;95.31;101242.56;2087919;28;20227;-70
2024/02/14 00:38:45;;;;;;;1.67;0.80;;;;;;;9.87;95.91;101271.59;2088977;28;20752;-70
2024/02/14 00:39:45;;;;;;;1.37;1.00;;;;;;;9.97;95.22;101279.00;2088591;28;20207;-69
2024/02/14 00:40:46;;;;;;;2.63;1.50;;;;;;;8.99;95.01;101133.38;2088435;28;20205;-70
2024/02/14 00:41:47;;;;;;;2.43;1.10;;;;;;;10.27;94.63;101330.91;2088441;28;20207;-70
2024/02/14 00:42:47;;;;;;;1.30;0.80;;;;;;;10.02;94.49;101311.78;2086438;28;20681;-70
2024/02/14 00:43:48;;;;;;;3.37;0.90;;;;;;;9.61;94.70;101252.09;2086970;28;20521;-70
2024/02/14 00:44:49;;;;;;;3.63;1.13;;;;;;;10.18;94.30;101333.38;2087489;28;20192;-70
2024/02/14 00:45:49;;;;;;;2.17;1.07;;;;;;;9.52;94.97;101215.81;2089886;28;20188;-70
2024/02/14 00:46:57;;;;;;;1.60;0.80;;;;;;;8.60;93.55;101085.16;2088429;28;20198;-69
2024/02/14 00:47:57;;;;;;;1.63;1.00;;;;;;;10.15;95.00;101334.97;2087662;28;20191;-70
2024/02/14 00:48:59;;;;;;;1.67;1.10;;;;;;;9.68;95.55;101258.34;2096416;28;20429;-70
2024/02/14 00:49:59;;;;;;;2.33;0.93;;;;;;;10.22;95.16;101334.13;2095873;28;20223;-70
2024/02/14 00:51:00;;;;;;;2.37;1.20;;;;;;;10.22;94.77;101325.81;2088578;28;20418;-70
2024/02/14 00:52:01;;;;;;;1.50;0.90;;;;;;;10.29;93.82;101326.53;2087216;28;20188;-70
2024/02/14 00:53:02;;;;;;;2.20;1.37;;;;;;;9.90;93.57;101275.50;2089277;28;20180;-70
2024/02/14 00:54:02;;;;;;;1.60;1.20;;;;;;;9.86;93.55;101270.03;2088072;28;20515;-70
2024/02/14 00:55:03;;;;;;;2.47;1.33;;;;;;;10.15;93.54;101334.97;2088530;28;20198;-70
2024/02/14 00:56:04;;;;;;;1.40;1.03;;;;;;;9.96;93.54;101302.34;2087641;28;20227;-70
2024/02/14 00:57:05;;;;;;;3.17;1.10;;;;;;;10.07;94.59;101310.56;2087111;28;20388;-70
2024/02/14 00:58:05;;;;;;;6.27;1.47;;;;;;;10.26;94.92;101351.50;2088771;28;20190;-71
2024/02/14 00:59:07;;;;;;;1.80;1.13;;;;;;;10.27;93.74;101334.47;2088713;28;20844;-71
2024/02/14 01:00:08;;;;;;;2.23;0.90;;;;;;;10.23;93.15;101336.50;2088565;28;20206;-71
2024/02/14 01:01:09;;;;;;;2.63;0.80;;;;;;;10.25;92.99;101349.94;2088834;28;20959;-71
2024/02/14 01:02:09;;;;;;;1.93;1.00;;;;;;;10.19;92.54;101346.06;2095279;28;20545;-70
2024/02/14 01:03:12;;;;;;;3.33;1.17;;;;;;;9.42;92.36;101228.56;2096020;28;20182;-70
2024/02/14 01:04:13;;;;;;;1.73;0.97;;;;;;;10.12;92.45;101344.13;2088022;28;20188;-69
2024/02/14 01:05:13;;;;;;;1.20;0.83;;;;;;;9.63;92.61;101274.63;2089079;28;20434;-69
2024/02/14 01:06:15;;;;;;;2.70;1.03;;;;;;;9.46;92.26;101251.44;2079533;28;20626;-70
2024/02/14 01:07:15;;;;;;;9.60;1.13;;;;;;;9.50;93.48;101274.34;2087624;28;20197;-70
2024/02/14 01:08:17;;;;;;;1.77;0.83;;;;;;;9.63;93.83;101288.44;2088724;28;20449;-70
2024/02/14 01:09:19;;;;;;;1.63;0.87;;;;;;;9.97;93.57;101345.44;2088265;28;20202;-70
2024/02/14 01:10:20;;;;;;;2.60;1.33;;;;;;;10.02;94.25;101345.00;2088744;28;20456;-69
2024/02/14 01:11:20;;;;;;;2.00;0.80;;;;;;;9.40;93.57;101258.63;2089750;28;20429;-69
2024/02/14 01:12:21;;;;;;;2.00;1.27;;;;;;;9.77;94.15;101332.56;2088148;28;20438;-70
2024/02/14 01:13:22;;;;;;;1.83;0.90;;;;;;;9.86;94.01;101328.16;2088048;28;20220;-70
2024/02/14 01:14:23;;;;;;;2.17;1.20;;;;;;;9.12;94.33;101211.06;2088393;28;20186;-70
2024/02/14 01:15:24;;;;;;;1.37;0.90;;;;;;;9.54;93.91;101277.84;2088211;28;20567;-70
2024/02/14 01:16:25;;;;;;;2.60;1.10;;;;;;;10.01;93.53;101342.63;2088354;28;20614;-70
2024/02/14 01:17:26;;;;;;;1.23;0.90;;;;;;;9.96;94.23;101357.72;2088690;28;20187;-71
2024/02/14 01:18:26;;;;;;;1.60;1.07;;;;;;;9.44;93.18;101266.88;2088078;28;20455;-70
2024/02/14 01:19:28;;;;;;;1.03;0.60;;;;;;;9.67;93.60;101303.00;2087993;28;20317;-70
2024/02/14 01:20:29;;;;;;;1.63;0.73;;;;;;;9.88;93.90;101347.91;2088041;28;20181;-70
2024/02/14 01:21:30;;;;;;;1.03;0.80;;;;;;;9.61;94.36;101304.66;2088296;28;20959;-70
2024/02/14 01:22:30;;;;;;;1.90;1.10;;;;;;;9.05;94.20;101211.09;2088265;28;20260;-70
2024/02/14 01:23:31;;;;;;;3.37;1.03;;;;;;;9.91;95.30;101344.31;2088920;28;20183;-70
2024/02/14 01:24:32;;;;;;;1.50;1.10;;;;;;;10.03;94.33;101365.94;2087587;28;20339;-70
2024/02/14 01:25:32;;;;;;;1.00;0.80;;;;;;;9.46;93.60;101270.00;2087840;28;20281;-70
2024/02/14 01:26:33;;;;;;;2.80;1.17;;;;;;;10.01;94.73;101353.72;2088239;28;20495;-70
2024/02/14 01:27:33;;;;;;;1.70;0.90;;;;;;;9.58;93.59;101295.19;2086885;28;20700;-70
2024/02/14 01:28:34;;;;;;;1.63;1.00;;;;;;;10.05;94.38;101360.81;2088632;28;20619;-71
2024/02/14 01:29:35;;;;;;;1.00;0.80;;;;;;;9.86;94.07;101324.59;2089013;28;20188;-70
2024/02/14 01:30:38;;;;;;;1.43;1.00;;;;;;;9.94;93.78;101323.34;2088625;28;20191;-70
2024/02/14 01:31:38;;;;;;;1.83;1.20;;;;;;;10.19;93.42;101352.34;2087278;28;20192;-69
2024/02/14 01:32:39;;;;;;;2.30;1.20;;;;;;;10.06;93.87;101325.59;2087876;28;20451;-70
2024/02/14 01:33:40;;;;;;;2.67;1.00;;;;;;;9.13;92.80;101171.91;2088171;28;20445;-71
2024/02/14 01:34:42;;;;;;;1.33;1.10;;;;;;;9.95;92.24;101292.44;2088093;28;20183;-70
2024/02/14 01:35:42;;;;;;;1.07;0.90;;;;;;;10.13;92.34;101328.28;2088283;28;20428;-70
2024/02/14 01:36:43;;;;;;;3.17;1.30;;;;;;;10.23;92.57;101336.50;2088868;28;20474;-70
2024/02/14 01:37:45;;;;;;;1.10;0.90;;;;;;;10.43;93.47;101354.06;2079412;28;20306;-70
2024/02/14 01:38:45;;;;;;;2.17;1.10;;;;;;;10.46;92.89;101350.47;2086500;28;20182;-71
2024/02/14 01:39:46;;;;;;;1.40;0.80;;;;;;;10.17;91.64;101312.41;2088607;28;20452;-70
2024/02/14 01:40:47;;;;;;;2.27;0.90;;;;;;;10.27;90.07;101323.41;2087682;28;20178;-70
2024/02/14 01:41:48;;;;;;;1.00;0.90;;;;;;;10.14;90.68;101293.88;2087087;28;20222;-70
2024/02/14 01:42:49;;;;;;;2.43;1.10;;;;;;;10.23;90.29;101310.75;2089536;28;20197;-70
2024/02/14 01:43:49;;;;;;;3.27;1.17;;;;;;;10.46;89.32;101338.59;2088070;28;20452;-70
2024/02/14 01:44:50;;;;;;;1.63;1.03;;;;;;;10.59;89.79;101351.50;2086980;28;20310;-71
2024/02/14 01:45:51;;;;;;;1.77;1.03;;;;;;;10.68;88.37;101349.03;2087964;28;20188;-70
2024/02/14 01:46:52;;;;;;;1.50;1.20;;;;;;;10.68;88.70;101351.78;2087748;28;20188;-70
2024/02/14 01:47:55;;;;;;;1.47;1.03;;;;;;;10.20;89.58;101270.06;2086598;28;20176;-70
2024/02/14 01:48:56;;;;;;;1.27;1.10;;;;;;;10.45;88.54;101307.31;2097185;28;20413;-70
2024/02/14 01:49:57;;;;;;;2.67;1.07;;;;;;;10.29;87.36;101293.28;2095478;28;21025;-70
2024/02/14 01:50:59;;;;;;;1.77;0.80;;;;;;;10.77;86.55;101363.13;2087494;28;20813;-71
2024/02/14 01:52:05;;;;;;;1.10;0.87;;;;;;;10.78;86.28;101356.41;2086572;28;20196;-70
2024/02/14 01:53:06;;;;;;;1.20;1.00;;;;;;;10.85;86.73;101361.06;2088094;28;20495;-70
2024/02/14 01:54:08;;;;;;;1.43;0.97;;;;;;;10.57;86.88;101309.56;2087687;28;20469;-70
2024/02/14 01:55:09;;;;;;;2.53;1.00;;;;;;;10.88;85.75;101366.56;2095754;28;20501;-71
2024/02/14 01:56:09;;;;;;;1.63;0.80;;;;;;;10.28;85.56;101269.56;2096745;28;21013;-70
2024/02/14 01:57:11;;;;;;;2.20;1.30;;;;;;;10.45;85.58;101293.47;2092227;28;20214;-70
2024/02/14 01:58:12;;;;;;;1.10;0.70;;;;;;;10.42;85.84;101277.69;2091733;28;20187;-70
2024/02/14 01:59:14;;;;;;;1.00;0.80;;;;;;;10.85;85.85;101341.66;2087589;28;20992;-70
2024/02/14 02:00:17;;;;;;;1.37;0.80;;;;;;;10.71;84.76;101325.22;2087715;28;20938;-70
2024/02/14 02:01:18;;;;;;;1.07;0.90;;;;;;;10.98;86.32;101375.94;2088361;28;20423;-70
2024/02/14 02:02:19;;;;;;;1.97;1.07;;;;;;;10.50;85.98;101312.41;2089272;28;20422;-70
2024/02/14 02:03:20;;;;;;;1.57;1.00;;;;;;;10.87;84.75;101367.00;2095749;28;20587;-70
2024/02/14 02:04:21;;;;;;;1.83;0.90;;;;;;;10.79;83.68;101366.28;2094010;28;21267;-70
2024/02/14 02:05:22;;;;;;;0.80;0.60;;;;;;;10.73;82.88;101364.41;2086908;28;20866;-69
2024/02/14 02:06:22;;;;;;;1.87;0.90;;;;;;;10.32;83.44;101303.53;2088376;28;20275;-70
2024/02/14 02:07:24;;;;;;;1.07;0.90;;;;;;;10.20;84.90;101286.69;2087532;28;20184;-70
2024/02/14 02:08:24;;;;;;;1.03;0.70;;;;;;;10.57;84.31;101372.50;2088580;28;20199;-70
2024/02/14 02:09:25;;;;;;;1.97;0.90;;;;;;;10.57;84.20;101361.44;2096284;28;20437;-70
2024/02/14 02:10:27;;;;;;;1.73;0.70;;;;;;;10.13;84.52;101292.28;2095924;28;20298;-71
2024/02/14 02:11:27;;;;;;;1.30;0.83;;;;;;;9.92;86.04;101271.13;2088081;28;20185;-70
2024/02/14 02:12:28;;;;;;;0.93;0.73;;;;;;;10.43;83.74;101347.72;2087843;28;20444;-70
2024/02/14 02:13:28;;;;;;;1.20;0.70;;;;;;;9.94;82.07;101293.66;2086997;28;20626;-69
2024/02/14 02:14:29;;;;;;;1.03;0.70;;;;;;;10.42;83.47;101360.03;2095680;28;20256;-70
2024/02/14 02:15:30;;;;;;;2.53;0.97;;;;;;;10.32;84.46;101360.94;2096038;28;20324;-70
2024/02/14 02:16:33;;;;;;;2.40;1.00;;;;;;;9.95;83.63;101306.28;2087246;28;20962;-70
2024/02/14 02:17:34;;;;;;;1.57;1.00;;;;;;;10.33;84.88;101376.34;2095628;28;20871;-71
2024/02/14 02:18:34;;;;;;;3.30;1.20;;;;;;;10.33;84.95;101373.56;2095549;28;20444;-70
2024/02/14 02:19:36;;;;;;;2.10;1.30;;;;;;;10.00;85.31;101328.00;2087292;28;20562;-71
2024/02/14 02:20:36;;;;;;;2.23;1.30;;;;;;;10.39;85.70;101375.50;2087543;28;20186;-69
2024/02/14 02:21:37;;;;;;;3.83;1.77;;;;;;;10.13;84.54;101372.59;2089004;28;20454;-71
2024/02/14 02:22:44;;;;;;;2.07;1.40;;;;;;;10.25;84.43;101385.94;2087205;28;20184;-69
2024/02/14 02:23:46;;;;;;;2.93;1.27;;;;;;;10.24;84.75;101393.47;2087124;28;20238;-71
2024/02/14 02:24:47;;;;;;;1.40;1.07;;;;;;;10.23;84.37;101372.50;2088074;28;20492;-70
2024/02/14 02:25:48;;;;;;;1.87;1.00;;;;;;;9.72;84.35;101299.81;2087637;28;20499;-70
2024/02/14 02:26:48;;;;;;;1.83;1.20;;;;;;;9.74;84.13;101323.13;2087811;28;20209;-70
2024/02/14 02:27:49;;;;;;;3.17;1.00;;;;;;;9.60;83.56;101309.44;2088754;28;20183;-70
2024/02/14 02:28:49;;;;;;;1.10;0.80;;;;;;;9.54;83.38;101288.91;2088512;28;20184;-70
2024/02/14 02:29:50;;;;;;;2.20;0.93;;;;;;;10.18;83.92;101389.56;2087777;28;20224;-70
2024/02/14 02:30:52;;;;;;;3.50;1.00;;;;;;;10.13;83.77;101386.44;2087129;28;20195;-70
2024/02/14 02:31:52;;;;;;;3.53;0.87;;;;;;;9.59;84.13;101324.44;2086952;28;20190;-69
2024/02/14 02:32:53;;;;;;;2.33;1.03;;;;;;;9.84;84.18;101369.28;2087467;28;20453;-70
2024/02/14 02:33:53;;;;;;;1.03;0.80;;;;;;;10.04;85.11;101400.00;2088209;28;20183;-69
2024/02/14 02:34:54;;;;;;;1.20;0.80;;;;;;;10.09;84.92;101405.88;2088967;28;20222;-71
2024/02/14 02:35:54;;;;;;;1.93;0.80;;;;;;;10.11;84.75;101408.25;2095272;28;20183;-70
2024/02/14 02:36:56;;;;;;;3.73;1.37;;;;;;;9.95;84.24;101377.50;2095838;28;20225;-70
2024/02/14 02:37:57;;;;;;;1.17;0.80;;;;;;;10.13;84.03;101406.63;2087306;28;20285;-70
2024/02/14 02:38:58;;;;;;;1.10;0.90;;;;;;;10.14;84.05;101412.97;2087870;28;20515;-70
2024/02/14 02:39:58;;;;;;;1.03;0.80;;;;;;;10.09;84.62;101413.41;2088308;28;20181;-70
2024/02/14 02:41:00;;;;;;;1.37;0.77;;;;;;;9.69;84.81;101362.28;2088767;28;20665;-70
2024/02/14 02:42:01;;;;;;;1.93;0.83;;;;;;;10.03;84.81;101401.94;2087251;28;20191;-70
2024/02/14 02:43:01;;;;;;;2.80;1.13;;;;;;;9.59;85.12;101320.91;2087964;28;20437;-71
2024/02/14 02:44:02;;;;;;;1.63;0.80;;;;;;;10.13;84.53;101405.84;2087405;28;20227;-70
2024/02/14 02:45:05;;;;;;;1.43;0.90;;;;;;;9.80;84.89;101353.91;2087684;28;20183;-70
2024/02/14 02:46:08;;;;;;;0.97;0.77;;;;;;;10.05;84.96;101402.34;2087571;28;20660;-70
2024/02/14 02:47:10;;;;;;;1.53;0.90;;;;;;;9.25;84.98;101268.22;2089008;28;20450;-70
2024/02/14 02:48:11;;;;;;;1.30;0.90;;;;;;;9.91;84.76;101360.94;2086863;28;20427;-70
2024/02/14 02:49:13;;;;;;;1.00;0.73;;;;;;;10.30;84.92;101424.28;2078237;28;20533;-70
2024/02/14 02:50:14;;;;;;;1.50;0.80;;;;;;;10.35;85.06;101421.84;2078827;28;20201;-70
2024/02/14 02:51:17;;;;;;;2.60;0.87;;;;;;;10.17;84.59;101378.91;2086889;28;21056;-70
2024/02/14 02:52:18;;;;;;;1.47;0.80;;;;;;;10.32;85.06;101400.50;2087436;28;20617;-70
2024/02/14 02:53:19;;;;;;;2.07;1.00;;;;;;;10.52;85.33;101425.63;2088008;28;20418;-70
2024/02/14 02:54:23;;;;;;;1.80;1.20;;;;;;;10.45;84.61;101411.84;2087597;28;20188;-70
2024/02/14 02:55:23;;;;;;;2.13;0.73;;;;;;;9.97;84.58;101328.03;2086912;28;20442;-70
2024/02/14 02:56:27;;;;;;;1.73;0.80;;;;;;;10.20;83.46;101355.94;2095198;28;20438;-70
2024/02/14 02:57:32;;;;;;;1.27;0.93;;;;;;;10.25;82.81;101349.94;2095083;28;20285;-70
2024/02/14 02:58:33;;;;;;;1.30;0.73;;;;;;;10.70;81.32;101427.00;2094030;28;20516;-70
2024/02/14 02:59:35;;;;;;;1.60;1.00;;;;;;;10.73;80.90;101431.72;2094174;28;20430;-70
2024/02/14 03:00:35;;;;;;;2.13;1.10;;;;;;;10.26;81.58;101349.50;2087159;28;20795;-69
2024/02/14 03:01:36;;;;;;;0.70;0.67;;;;;;;9.98;81.30;101319.31;2088374;28;20462;-70
2024/02/14 03:02:39;;;;;;;1.77;0.90;;;;;;;10.44;81.48;101382.56;2087314;28;20177;-71
2024/02/14 03:03:41;;;;;;;0.93;0.70;;;;;;;10.79;81.88;101430.06;2087806;28;20196;-70
2024/02/14 03:04:41;;;;;;;0.60;0.60;;;;;;;10.33;80.84;101362.50;2086688;28;20943;-70
2024/02/14 03:05:44;;;;;;;1.50;0.77;;;;;;;10.31;81.26;101375.97;2087796;28;20806;-71
2024/02/14 03:06:45;;;;;;;1.40;1.00;;;;;;;10.44;81.04;101388.91;2087380;28;20190;-71
2024/02/14 03:07:47;;;;;;;2.77;1.27;;;;;;;10.27;81.50;101370.47;2087155;28;21160;-71
2024/02/14 03:08:48;;;;;;;2.10;1.13;;;;;;;10.56;80.58;101443.78;2087518;28;20186;-71
2024/02/14 03:09:49;;;;;;;1.87;0.97;;;;;;;10.51;80.73;101449.78;2086326;28;20441;-70
2024/02/14 03:10:49;;;;;;;2.43;1.07;;;;;;;10.49;82.13;101448.59;2078913;28;20528;-70
2024/02/14 03:11:51;;;;;;;1.30;1.00;;;;;;;10.20;83.33;101422.41;2086176;28;20197;-70
2024/02/14 03:12:51;;;;;;;1.83;1.10;;;;;;;10.05;83.36;101390.50;2087328;28;20304;-70
2024/02/14 03:13:52;;;;;;;1.53;1.10;;;;;;;10.46;83.57;101458.53;2088545;28;20430;-70
2024/02/14 03:14:52;;;;;;;2.57;1.00;;;;;;;10.10;83.07;101401.91;2094985;28;20187;-70
2024/02/14 03:15:53;;;;;;;1.77;0.87;;;;;;;10.37;82.76;101449.13;2094702;28;20191;-71
2024/02/14 03:16:55;;;;;;;2.67;1.00;;;;;;;9.89;82.61;101381.91;2087844;28;20179;-70
2024/02/14 03:17:56;;;;;;;1.60;0.90;;;;;;;10.45;82.97;101450.66;2087538;28;20188;-70
2024/02/14 03:18:56;;;;;;;3.13;0.87;;;;;;;10.48;83.51;101470.00;2087343;28;20434;-70
2024/02/14 03:19:57;;;;;;;1.20;0.90;;;;;;;10.39;84.18;101449.50;2088544;28;20200;-70
2024/02/14 03:20:58;;;;;;;2.37;0.90;;;;;;;9.59;84.84;101323.66;2095177;28;20724;-70
2024/02/14 03:21:58;;;;;;;1.17;0.90;;;;;;;10.49;84.89;101454.16;2093999;28;20195;-70
2024/02/14 03:22:58;;;;;;;2.27;1.30;;;;;;;9.83;83.65;101359.41;2078458;28;20204;-70
2024/02/14 03:23:59;;;;;;;1.67;1.00;;;;;;;10.41;84.50;101460.97;2086676;28;20200;-71
2024/02/14 03:24:59;;;;;;;3.43;1.10;;;;;;;10.43;83.94;101450.25;2086395;28;20181;-70
2024/02/14 03:26:00;;;;;;;1.50;1.00;;;;;;;10.44;84.68;101466.47;2088721;28;20532;-70
2024/02/14 03:27:00;;;;;;;4.93;1.07;;;;;;;10.11;85.26;101424.84;2087413;28;20188;-71
2024/02/14 03:28:01;;;;;;;1.67;1.00;;;;;;;10.31;84.25;101451.56;2087427;28;20595;-71
2024/02/14 03:29:06;;;;;;;4.07;1.27;;;;;;;10.53;85.10;101471.53;2094767;28;20301;-70
2024/02/14 03:30:07;;;;;;;1.77;1.20;;;;;;;10.54;85.78;101468.34;2095057;28;20210;-70
2024/02/14 03:31:07;;;;;;;2.37;1.00;;;;;;;10.50;86.48;101475.16;2086662;28;20531;-71
2024/02/14 03:32:08;;;;;;;2.50;1.23;;;;;;;10.13;87.08;101419.69;2087289;28;20487;-70
2024/02/14 03:33:09;;;;;;;2.13;0.93;;;;;;;10.15;88.09;101418.06;2088196;28;20191;-71
2024/02/14 03:34:10;;;;;;;1.33;0.83;;;;;;;10.42;88.40;101448.69;2085998;28;20693;-70
2024/02/14 03:35:13;;;;;;;1.43;1.03;;;;;;;10.52;88.57;101481.84;2086397;28;20188;-70
2024/02/14 03:36:13;;;;;;;1.43;0.90;;;;;;;10.32;89.53;101458.69;2087120;28;20568;-71
2024/02/14 03:37:14;;;;;;;1.10;0.97;;;;;;;10.47;89.99;101482.28;2087279;28;20629;-71
2024/02/14 03:38:25;;;;;;;2.73;1.17;;;;;;;9.76;89.11;101387.16;2094397;28;20180;-70
2024/02/14 03:39:26;;;;;;;1.20;1.03;;;;;;;10.23;90.25;101474.19;2093790;28;20186;-70
2024/02/14 03:40:26;;;;;;;1.67;1.00;;;;;;;9.21;90.35;101324.75;2095921;28;20430;-71
2024/02/14 03:41:27;;;;;;;1.43;1.03;;;;;;;9.85;91.52;101422.69;2095100;28;20202;-70
2024/02/14 03:42:28;;;;;;;1.50;1.00;;;;;;;10.32;91.10;101486.41;2086528;28;20192;-71
2024/02/14 03:43:28;;;;;;;2.90;1.20;;;;;;;10.24;91.69;101468.25;2086678;28;20199;-70
2024/02/14 03:44:29;;;;;;;2.17;1.40;;;;;;;10.05;92.49;101438.34;2086945;28;20180;-71
2024/02/14 03:45:29;;;;;;;2.80;1.20;;;;;;;10.23;93.27;101469.47;2086820;28;20194;-70
2024/02/14 03:46:30;;;;;;;5.80;1.37;;;;;;;10.34;93.32;101492.31;2087543;28;20185;-70
2024/02/14 03:47:31;;;;;;;1.50;1.00;;;;;;;10.24;93.40;101476.56;2086570;28;20622;-70
2024/02/14 03:48:32;;;;;;;1.23;1.00;;;;;;;10.31;93.50;101497.88;2085842;28;20712;-71
2024/02/14 03:49:32;;;;;;;2.03;1.13;;;;;;;10.22;93.76;101478.97;2074223;28;20528;-70
2024/02/14 03:50:33;;;;;;;1.10;0.90;;;;;;;9.75;94.34;101427.13;2079501;28;20211;-71
2024/02/14 03:51:33;;;;;;;2.17;1.03;;;;;;;9.75;95.17;101416.03;2087840;28;20176;-71
2024/02/14 03:52:34;;;;;;;2.77;1.43;;;;;;;9.53;95.12;101400.00;2088000;28;20186;-70
2024/02/14 03:53:34;;;;;;;1.70;0.90;;;;;;;9.86;95.07;101454.72;2086508;28;20265;-70
2024/02/14 03:54:38;;;;;;;1.90;1.00;;;;;;;9.32;94.88;101378.78;2086710;28;20198;-71
2024/02/14 03:55:39;;;;;;;1.60;1.00;;;;;;;9.89;94.79;101456.66;2087647;28;20257;-71
2024/02/14 03:56:40;;;;;;;3.47;1.13;;;;;;;9.45;95.69;101388.22;2087974;28;20474;-71
2024/02/14 03:57:41;;;;;;;1.77;0.97;;;;;;;9.74;95.77;101444.13;2087259;28;20198;-70
2024/02/14 03:58:42;;;;;;;2.67;1.10;;;;;;;9.78;96.18;101459.50;2088613;28;20431;-71
2024/02/14 03:59:43;;;;;;;2.03;1.00;;;;;;;10.04;95.40;101503.25;2087228;28;20678;-70
2024/02/14 04:00:44;;;;;;;1.90;1.20;;;;;;;10.16;95.83;101513.03;2087927;28;20538;-70
2024/02/14 04:01:45;;;;;;;2.57;1.37;;;;;;;10.04;94.58;101492.16;2094557;28;20199;-70
2024/02/14 04:02:48;;;;;;;1.63;0.97;;;;;;;9.99;95.30;101481.50;2095163;28;20511;-70
2024/02/14 04:03:49;;;;;;;1.53;1.00;;;;;;;10.05;95.53;101502.03;2087077;28;20186;-70
2024/02/14 04:04:49;;;;;;;2.13;1.10;;;;;;;10.01;95.67;101484.66;2087683;28;20468;-71
2024/02/14 04:05:50;;;;;;;1.80;1.23;;;;;;;9.92;95.23;101486.28;2078568;28;20668;-70
2024/02/14 04:06:50;;;;;;;2.00;1.07;;;;;;;10.15;94.64;101517.03;2078510;28;20673;-70
2024/02/14 04:07:52;;;;;;;3.43;1.23;;;;;;;9.94;93.71;101481.16;2078165;28;20259;-71
2024/02/14 04:08:52;;;;;;;1.43;0.80;;;;;;;9.84;94.01;101463.41;2087192;28;20627;-70
2024/02/14 04:09:53;;;;;;;2.27;1.17;;;;;;;9.89;93.08;101487.91;2087267;28;20418;-70
2024/02/14 04:10:56;;;;;;;3.17;1.20;;;;;;;9.50;92.60;101422.94;2088637;28;20711;-71
2024/02/14 04:11:57;;;;;;;2.70;1.20;;;;;;;9.90;93.29;101486.69;2087047;28;20203;-70
2024/02/14 04:12:58;;;;;;;1.77;1.40;;;;;;;10.16;93.96;101522.16;2087749;28;20523;-71
2024/02/14 04:13:58;;;;;;;1.73;1.00;;;;;;;9.53;92.71;101439.50;2087197;28;20195;-71
2024/02/14 04:14:59;;;;;;;2.57;0.90;;;;;;;10.06;92.82;101517.47;2087586;28;20462;-71
2024/02/14 04:15:59;;;;;;;1.87;1.03;;;;;;;9.76;92.34;101472.97;2087010;28;20191;-70
2024/02/14 04:17:00;;;;;;;2.90;1.00;;;;;;;9.75;92.34;101492.75;2096229;28;20202;-70
2024/02/14 04:18:02;;;;;;;1.50;0.97;;;;;;;9.33;92.46;101407.25;2086475;28;20197;-71
2024/02/14 04:19:03;;;;;;;2.00;1.20;;;;;;;9.82;92.48;101489.91;2086432;28;20187;-71
2024/02/14 04:20:04;;;;;;;1.90;1.00;;;;;;;10.04;92.97;101525.41;2087248;28;20471;-71
2024/02/14 04:21:07;;;;;;;2.83;1.60;;;;;;;9.74;92.70;101480.88;2086239;28;20204;-71
2024/02/14 04:22:08;;;;;;;1.30;0.97;;;;;;;9.65;92.37;101477.00;2086845;28;20429;-71
2024/02/14 04:23:08;;;;;;;2.07;0.97;;;;;;;9.64;92.57;101476.19;2087009;28;20460;-71
2024/02/14 04:24:09;;;;;;;1.20;1.00;;;;;;;9.43;92.14;101448.66;2088081;28;20188;-70
2024/02/14 04:25:09;;;;;;;1.43;0.90;;;;;;;9.60;92.09;101475.47;2087597;28;20183;-71
2024/02/14 04:26:17;;;;;;;1.43;0.90;;;;;;;9.45;92.50;101446.31;2094293;28;20218;-70
2024/02/14 04:27:18;;;;;;;3.20;1.00;;;;;;;9.85;91.61;101523.13;2093747;28;20187;-71
2024/02/14 04:28:18;;;;;;;2.73;1.60;;;;;;;9.47;91.17;101465.25;2086220;28;20449;-71
2024/02/14 04:29:19;;;;;;;1.40;0.83;;;;;;;9.82;90.80;101528.69;2085713;28;20249;-70
2024/02/14 04:30:19;;;;;;;1.37;1.00;;;;;;;9.76;90.52;101531.09;2088290;28;20204;-70
2024/02/14 04:31:20;;;;;;;1.23;0.90;;;;;;;8.28;91.55;101305.53;2087365;28;20200;-70
2024/02/14 04:32:20;;;;;;;1.40;1.00;;;;;;;9.68;91.56;101529.56;2086765;28;20203;-71
2024/02/14 04:33:21;;;;;;;2.93;1.10;;;;;;;9.39;91.15;101483.09;2086645;28;20544;-70
2024/02/14 04:34:23;;;;;;;1.83;1.00;;;;;;;9.02;91.63;101433.88;2086597;28;20196;-70
2024/02/14 04:35:24;;;;;;;1.43;0.70;;;;;;;9.73;91.60;101529.13;2087122;28;20188;-71
2024/02/14 04:36:24;;;;;;;1.30;0.90;;;;;;;9.74;91.38;101536.25;2088214;28;20463;-71
2024/02/14 04:37:25;;;;;;;3.33;1.20;;;;;;;9.76;91.37;101535.84;2087312;28;20184;-71
2024/02/14 04:38:25;;;;;;;1.97;1.00;;;;;;;9.29;90.73;101462.59;2086534;28;20184;-70
2024/02/14 04:39:26;;;;;;;1.17;0.70;;;;;;;9.28;90.54;101465.75;2086636;28;20618;-70
2024/02/14 04:40:26;;;;;;;2.30;1.10;;;;;;;9.74;90.08;101535.47;2086967;28;20883;-70
2024/02/14 04:41:27;;;;;;;1.70;0.90;;;;;;;8.88;90.12;101411.84;2094684;28;20183;-70
2024/02/14 04:42:27;;;;;;;1.97;1.10;;;;;;;8.89;89.51;101393.28;2096114;28;20698;-70
2024/02/14 04:43:28;;;;;;;1.20;0.80;;;;;;;9.32;89.24;101467.31;2087088;28;20670;-70
2024/02/14 04:44:29;;;;;;;1.33;1.00;;;;;;;9.36;89.54;101475.59;2087204;28;20223;-70
2024/02/14 04:45:29;;;;;;;1.70;0.90;;;;;;;9.72;90.47;101529.53;2086852;28;20221;-71